createdAt,value
2022-09-14T00:01:28.475Z,11.61
2022-09-14T00:03:59.979Z,11.56
2022-09-14T00:06:27.102Z,11.54
2022-09-14T00:08:54.924Z,11.53
2022-09-14T00:11:23.410Z,11.57
2022-09-14T00:13:51.590Z,11.56
2022-09-14T00:16:23.648Z,11.53
2022-09-14T00:18:54.490Z,11.51
2022-09-14T00:21:22.208Z,11.45
2022-09-14T00:23:51.534Z,11.48
2022-09-14T00:26:20.602Z,11.52
2022-09-14T00:28:50.062Z,11.56
2022-09-14T00:31:20.719Z,11.54
2022-09-14T00:33:48.475Z,11.59
2022-09-14T00:36:18.008Z,11.62
2022-09-14T00:38:46.240Z,11.66
2022-09-14T00:41:21.491Z,11.73
2022-09-14T00:44:27.713Z,11.78
2022-09-14T00:46:57.424Z,11.89
2022-09-14T00:49:27.501Z,11.96
2022-09-14T00:52:14.412Z,11.96
2022-09-14T00:54:45.308Z,11.97
2022-09-14T00:57:12.323Z,11.95
2022-09-14T00:59:39.870Z,11.94
2022-09-14T01:02:09.251Z,11.93
2022-09-14T01:04:36.766Z,11.93
2022-09-14T01:07:42.305Z,11.92
2022-09-14T01:10:24.635Z,11.93
2022-09-14T01:12:51.188Z,11.93
2022-09-14T01:15:23.456Z,11.94
2022-09-14T01:17:53.240Z,11.97
2022-09-14T01:20:29.113Z,11.95
2022-09-14T01:23:29.317Z,11.99
2022-09-14T01:26:05.722Z,12.04
2022-09-14T01:28:50.799Z,12.01
2022-09-14T01:31:23.133Z,12.00
2022-09-14T01:33:56.810Z,12.02
2022-09-14T01:36:25.278Z,12.05
2022-09-14T01:38:53.749Z,12.02
2022-09-14T01:41:23.807Z,12.03
2022-09-14T01:44:13.528Z,11.99
2022-09-14T01:46:43.492Z,11.97
2022-09-14T01:49:15.261Z,11.93
2022-09-14T01:51:52.331Z,11.96
2022-09-14T01:54:35.847Z,11.93
2022-09-14T01:57:20.852Z,11.94
2022-09-14T01:59:49.595Z,11.90
2022-09-14T02:02:17.269Z,11.97
2022-09-14T02:05:07.367Z,12.01
2022-09-14T02:07:35.041Z,12.01
2022-09-14T02:10:03.696Z,12.00
2022-09-14T02:12:30.271Z,11.95
2022-09-14T02:14:56.865Z,11.96
2022-09-14T02:17:23.529Z,11.92
2022-09-14T02:20:05.119Z,11.91
2022-09-14T02:22:31.781Z,11.90
2022-09-14T02:24:58.490Z,11.89
2022-09-14T02:27:25.181Z,11.86
2022-09-14T02:29:52.375Z,11.85
2022-09-14T02:32:31.031Z,11.89
2022-09-14T02:35:42.901Z,12.01
2022-09-14T02:38:28.013Z,11.89
2022-09-14T02:41:31.484Z,11.79
2022-09-14T02:44:04.909Z,11.72
2022-09-14T02:46:31.410Z,11.70
2022-09-14T02:49:25.400Z,11.70
2022-09-14T02:51:58.265Z,11.66
2022-09-14T02:54:32.814Z,11.67
2022-09-14T02:57:03.643Z,11.66
2022-09-14T02:59:30.627Z,11.66
2022-09-14T03:01:59.051Z,11.71
2022-09-14T03:04:25.740Z,11.66
2022-09-14T03:06:52.336Z,11.66
2022-09-14T03:09:19.056Z,11.65
2022-09-14T03:11:45.665Z,11.62
2022-09-14T03:14:12.517Z,11.61
2022-09-14T03:16:42.909Z,11.60
2022-09-14T03:19:12.204Z,11.59
2022-09-14T03:21:39.794Z,11.63
2022-09-14T03:24:06.673Z,11.61
2022-09-14T03:26:36.776Z,11.59
2022-09-14T03:29:04.237Z,11.54
2022-09-14T03:31:31.160Z,11.51
2022-09-14T03:33:59.963Z,11.47
2022-09-14T03:36:28.926Z,11.43
2022-09-14T03:38:58.414Z,11.41
2022-09-14T03:41:25.463Z,11.35
2022-09-14T03:43:52.405Z,11.30
2022-09-14T03:46:21.730Z,11.25
2022-09-14T03:48:48.673Z,11.24
2022-09-14T03:51:15.619Z,11.22
2022-09-14T03:53:43.362Z,11.21
2022-09-14T03:56:12.698Z,11.16
2022-09-14T03:58:39.503Z,11.18
2022-09-14T04:01:11.554Z,11.12
2022-09-14T04:03:38.429Z,11.07
2022-09-14T04:06:05.513Z,11.02
2022-09-14T04:08:38.762Z,11.00
2022-09-14T04:11:10.894Z,10.97
2022-09-14T04:13:37.964Z,10.92
2022-09-14T04:16:06.597Z,10.90
2022-09-14T04:18:35.528Z,10.89
2022-09-14T04:21:08.296Z,10.87
2022-09-14T04:23:46.238Z,10.89
2022-09-14T04:26:19.650Z,10.90
2022-09-14T04:28:46.634Z,10.89
2022-09-14T04:31:14.246Z,10.91
2022-09-14T04:33:45.885Z,10.88
2022-09-14T04:36:16.381Z,10.90
2022-09-14T04:38:43.578Z,10.92
2022-09-14T04:41:18.056Z,10.92
2022-09-14T04:43:45.640Z,10.94
2022-09-14T04:46:15.005Z,10.97
2022-09-14T04:48:42.093Z,11.01
2022-09-14T04:51:16.552Z,11.04
2022-09-14T04:53:43.931Z,11.07
2022-09-14T04:56:12.260Z,11.20
2022-09-14T04:58:44.811Z,11.19
2022-09-14T05:01:15.819Z,11.19
2022-09-14T05:03:42.853Z,11.17
2022-09-14T05:06:12.454Z,11.17
2022-09-14T05:08:39.483Z,11.20
2022-09-14T05:11:07.115Z,11.23
2022-09-14T05:13:34.538Z,11.26
2022-09-14T05:16:06.203Z,11.23
2022-09-14T05:18:33.510Z,11.31
2022-09-14T05:21:08.678Z,11.42
2022-09-14T05:23:35.734Z,11.38
2022-09-14T05:26:02.714Z,11.41
2022-09-14T05:28:29.395Z,11.46
2022-09-14T05:30:56.147Z,11.54
2022-09-14T05:33:22.959Z,11.62
2022-09-14T05:35:50.247Z,11.73
2022-09-14T05:38:17.333Z,11.82
2022-09-14T05:40:43.999Z,11.91
2022-09-14T05:43:10.628Z,11.96
2022-09-14T05:45:39.374Z,12.02
2022-09-14T05:48:05.925Z,12.05
2022-09-14T05:50:33.338Z,12.11
2022-09-14T05:53:00.385Z,12.15
2022-09-14T05:55:27.197Z,12.21
2022-09-14T05:57:58.798Z,12.25
2022-09-14T06:00:25.692Z,12.32
2022-09-14T06:02:53.656Z,12.39
2022-09-14T06:05:21.197Z,12.46
2022-09-14T06:07:54.497Z,12.56
2022-09-14T06:10:21.973Z,12.61
2022-09-14T06:12:53.474Z,12.71
2022-09-14T06:15:24.617Z,12.74
2022-09-14T06:17:51.389Z,12.75
2022-09-14T06:20:18.850Z,12.78
2022-09-14T06:22:45.405Z,12.87
2022-09-14T06:25:11.992Z,13.01
2022-09-14T06:27:38.563Z,13.12
2022-09-14T06:30:05.757Z,13.23
2022-09-14T06:32:32.298Z,13.34
2022-09-14T06:34:58.966Z,13.39
2022-09-14T06:37:25.553Z,13.49
2022-09-14T06:39:52.283Z,13.56
2022-09-14T06:42:18.910Z,13.55
2022-09-14T06:44:51.714Z,13.60
2022-09-14T06:47:18.269Z,13.60
2022-09-14T06:49:44.893Z,13.73
2022-09-14T06:52:11.498Z,13.83
2022-09-14T06:54:39.618Z,13.87
2022-09-14T06:57:06.544Z,13.95
2022-09-14T06:59:33.107Z,14.11
2022-09-14T07:02:00.962Z,14.20
2022-09-14T07:04:27.605Z,14.41
2022-09-14T07:06:55.594Z,14.46
2022-09-14T07:09:25.170Z,14.52
2022-09-14T07:11:51.781Z,14.55
2022-09-14T07:14:20.137Z,14.53
2022-09-14T07:16:46.758Z,14.53
2022-09-14T07:19:14.965Z,14.58
2022-09-14T07:21:43.984Z,14.61
2022-09-14T07:24:14.990Z,14.69
2022-09-14T07:26:42.523Z,14.73
2022-09-14T07:29:27.261Z,14.79
2022-09-14T07:31:54.254Z,14.54
2022-09-14T07:34:21.765Z,14.57
2022-09-14T07:36:48.342Z,14.77
2022-09-14T07:39:16.821Z,14.92
2022-09-14T07:41:43.864Z,15.09
2022-09-14T07:44:14.147Z,15.24
2022-09-14T07:46:42.083Z,15.38
2022-09-14T07:49:09.800Z,15.40
2022-09-14T07:51:37.099Z,15.55
2022-09-14T07:54:07.265Z,15.71
2022-09-14T07:56:34.914Z,15.50
2022-09-14T08:01:50.037Z,15.59
2022-09-14T08:04:16.913Z,15.27
2022-09-14T08:06:43.525Z,15.35
2022-09-14T08:09:12.572Z,15.24
2022-09-14T08:11:39.197Z,15.34
2022-09-14T08:14:09.835Z,15.30
2022-09-14T08:16:40.025Z,15.58
2022-09-14T08:19:18.298Z,15.72
2022-09-14T08:21:47.064Z,16.02
2022-09-14T08:24:16.775Z,16.30
2022-09-14T08:26:43.614Z,16.04
2022-09-14T08:29:14.760Z,16.34
2022-09-14T08:31:45.546Z,16.30
2022-09-14T08:34:12.911Z,16.61
2022-09-14T08:36:40.957Z,16.86
2022-09-14T08:39:10.335Z,17.04
2022-09-14T08:41:39.848Z,16.81
2022-09-14T08:44:44.089Z,16.73
2022-09-14T08:47:13.701Z,16.87
2022-09-14T08:50:01.401Z,16.96
2022-09-14T08:52:44.182Z,16.88
2022-09-14T08:55:17.492Z,16.91
2022-09-14T08:57:48.644Z,16.96
2022-09-14T09:00:18.106Z,17.12
2022-09-14T09:02:59.858Z,16.94
2022-09-14T09:05:29.982Z,17.11
2022-09-14T09:08:14.746Z,17.22
2022-09-14T09:10:41.764Z,17.46
2022-09-14T09:13:13.922Z,17.71
2022-09-14T09:15:50.726Z,17.62
2022-09-14T09:18:20.187Z,17.44
2022-09-14T09:20:51.641Z,17.49
2022-09-14T09:23:20.632Z,17.68
2022-09-14T09:25:47.146Z,17.44
2022-09-14T09:28:14.821Z,17.36
2022-09-14T09:30:41.580Z,17.25
2022-09-14T09:33:34.545Z,17.41
2022-09-14T09:36:17.376Z,17.15
2022-09-14T09:38:44.616Z,17.28
2022-09-14T09:41:21.884Z,17.33
2022-09-14T09:44:03.391Z,17.29
2022-09-14T09:46:31.631Z,17.54
2022-09-14T09:48:59.127Z,17.59
2022-09-14T09:51:28.402Z,17.25
2022-09-14T09:54:03.557Z,17.00
2022-09-14T09:56:32.532Z,17.12
2022-09-14T09:58:59.370Z,16.99
2022-09-14T10:01:32.965Z,16.90
2022-09-14T10:04:06.200Z,16.79
2022-09-14T10:06:41.887Z,16.79
2022-09-14T10:09:19.963Z,16.85
2022-09-14T10:11:47.725Z,16.94
2022-09-14T10:14:27.938Z,16.71
2022-09-14T10:17:05.405Z,16.67
2022-09-14T10:19:32.885Z,16.64
2022-09-14T10:22:17.385Z,16.74
2022-09-14T10:25:02.095Z,16.81
2022-09-14T10:27:40.920Z,16.82
2022-09-14T10:30:22.612Z,16.88
2022-09-14T10:32:56.858Z,16.97
2022-09-14T10:35:31.058Z,16.95
2022-09-14T10:38:07.422Z,17.04
2022-09-14T10:40:40.047Z,17.32
2022-09-14T10:43:22.094Z,17.18
2022-09-14T10:45:50.481Z,17.18
2022-09-14T10:48:26.284Z,17.35
2022-09-14T10:51:07.319Z,17.39
2022-09-14T10:53:52.836Z,17.55
2022-09-14T10:56:23.906Z,17.45
2022-09-14T10:59:02.658Z,17.47
2022-09-14T11:02:05.013Z,17.45
2022-09-14T11:05:08.525Z,17.60
2022-09-14T11:07:44.929Z,17.56
2022-09-14T11:10:36.090Z,17.59
2022-09-14T11:13:24.318Z,17.58
2022-09-14T11:16:21.475Z,17.49
2022-09-14T11:19:13.410Z,17.54
2022-09-14T11:22:07.857Z,17.47
2022-09-14T11:24:42.095Z,17.39
2022-09-14T11:27:39.678Z,17.49
2022-09-14T11:30:11.795Z,17.41
2022-09-14T11:32:52.782Z,17.40
2022-09-14T11:35:23.147Z,17.23
2022-09-14T11:38:23.428Z,17.27
2022-09-14T11:40:55.941Z,17.26
2022-09-14T11:44:05.264Z,17.07
2022-09-14T11:46:31.949Z,16.88
2022-09-14T11:49:07.095Z,16.79
2022-09-14T11:51:37.461Z,16.84
2022-09-14T11:54:11.099Z,16.83
2022-09-14T11:56:37.860Z,16.69
2022-09-14T11:59:07.094Z,16.86
2022-09-14T12:01:38.789Z,17.06
2022-09-14T12:04:14.470Z,16.96
2022-09-14T12:06:45.870Z,16.93
2022-09-14T12:09:20.960Z,16.92
2022-09-14T12:11:53.363Z,16.83
2022-09-14T12:14:36.499Z,16.76
2022-09-14T12:17:38.780Z,16.86
2022-09-14T12:20:31.653Z,16.81
2022-09-14T12:23:26.367Z,16.83
2022-09-14T12:26:06.974Z,16.85
2022-09-14T12:28:36.409Z,16.87
2022-09-14T12:31:03.033Z,16.75
2022-09-14T12:33:35.503Z,16.74
2022-09-14T12:36:34.134Z,16.87
2022-09-14T12:39:19.936Z,16.72
2022-09-14T12:41:46.472Z,16.81
2022-09-14T12:44:33.765Z,16.84
2022-09-14T12:47:25.093Z,16.82
2022-09-14T12:50:04.695Z,16.84
2022-09-14T12:52:37.312Z,16.71
2022-09-14T12:55:07.165Z,16.71
2022-09-14T12:57:42.426Z,16.69
2022-09-14T13:00:17.351Z,16.64
2022-09-14T13:03:14.813Z,16.61
2022-09-14T13:05:43.953Z,16.67
2022-09-14T13:08:12.544Z,16.68
2022-09-14T13:10:47.562Z,16.58
2022-09-14T13:13:31.376Z,16.51
2022-09-14T13:16:00.769Z,16.52
2022-09-14T13:18:35.232Z,16.37
2022-09-14T13:21:29.679Z,16.43
2022-09-14T13:23:56.615Z,16.40
2022-09-14T13:26:25.988Z,16.40
2022-09-14T13:28:54.355Z,16.39
2022-09-14T13:31:35.394Z,16.47
2022-09-14T13:34:05.590Z,16.62
2022-09-14T13:36:37.238Z,16.63
2022-09-14T13:39:04.501Z,16.51
2022-09-14T13:41:31.884Z,16.36
2022-09-14T13:43:59.827Z,16.57
2022-09-14T13:46:27.136Z,16.67
2022-09-14T13:48:54.239Z,16.60
2022-09-14T13:51:28.375Z,16.77
2022-09-14T13:53:56.618Z,16.68
2022-09-14T13:56:31.886Z,16.58
2022-09-14T13:59:18.265Z,16.59
2022-09-14T14:01:55.401Z,16.49
2022-09-14T14:04:35.564Z,16.41
2022-09-14T14:07:18.288Z,16.48
2022-09-14T14:09:54.298Z,16.44
2022-09-14T14:12:27.076Z,16.39
2022-09-14T14:15:06.538Z,16.47
2022-09-14T14:17:43.342Z,16.49
2022-09-14T14:20:34.052Z,16.31
2022-09-14T14:23:15.751Z,16.25
2022-09-14T14:26:09.785Z,16.29
2022-09-14T14:28:36.630Z,16.32
2022-09-14T14:31:08.543Z,16.31
2022-09-14T14:33:36.922Z,16.41
2022-09-14T14:36:09.391Z,16.50
2022-09-14T14:38:50.049Z,16.39
2022-09-14T14:41:22.511Z,16.44
2022-09-14T14:43:50.843Z,16.59
2022-09-14T14:46:17.725Z,16.67
2022-09-14T14:48:44.355Z,16.76
2022-09-14T14:51:15.210Z,16.82
2022-09-14T14:53:44.736Z,16.86
2022-09-14T14:56:13.332Z,16.73
2022-09-14T14:58:45.308Z,16.71
2022-09-14T15:01:16.428Z,16.56
2022-09-14T15:03:45.165Z,16.46
2022-09-14T15:06:19.549Z,16.49
2022-09-14T15:08:46.205Z,16.59
2022-09-14T15:11:18.014Z,16.57
2022-09-14T15:13:45.725Z,16.57
2022-09-14T15:16:13.734Z,16.51
2022-09-14T15:18:43.413Z,16.63
2022-09-14T15:21:10.509Z,16.44
2022-09-14T15:23:37.554Z,16.50
2022-09-14T15:26:04.348Z,16.18
2022-09-14T15:28:32.753Z,16.23
2022-09-14T15:30:59.477Z,16.24
2022-09-14T15:33:26.090Z,16.29
2022-09-14T15:35:56.660Z,16.25
2022-09-14T15:38:24.286Z,16.33
2022-09-14T15:40:54.062Z,16.35
2022-09-14T15:43:21.180Z,16.23
2022-09-14T15:45:48.052Z,16.29
2022-09-14T15:48:16.220Z,16.35
2022-09-14T15:50:44.891Z,16.36
2022-09-14T15:53:12.410Z,16.32
2022-09-14T15:55:44.143Z,16.17
2022-09-14T15:58:11.607Z,16.12
2022-09-14T16:00:45.822Z,15.99
2022-09-14T16:03:12.870Z,16.06
2022-09-14T16:05:40.117Z,15.90
2022-09-14T16:08:07.167Z,15.93
2022-09-14T16:10:34.076Z,16.03
2022-09-14T16:13:00.687Z,16.05
2022-09-14T16:15:27.338Z,16.09
2022-09-14T16:17:57.032Z,16.10
2022-09-14T16:20:33.477Z,15.93
2022-09-14T16:23:00.070Z,15.92
2022-09-14T16:25:26.695Z,15.88
2022-09-14T16:27:53.273Z,15.82
2022-09-14T16:30:19.867Z,15.77
2022-09-14T16:32:48.771Z,15.69
2022-09-14T16:35:15.534Z,15.70
2022-09-14T16:37:42.098Z,15.62
2022-09-14T16:40:09.537Z,15.60
2022-09-14T16:42:36.170Z,15.50
2022-09-14T16:45:05.427Z,15.42
2022-09-14T16:47:32.467Z,15.28
2022-09-14T16:49:59.668Z,15.18
2022-09-14T16:52:26.427Z,15.14
2022-09-14T16:54:56.051Z,15.06
2022-09-14T16:57:25.429Z,14.96
2022-09-14T16:59:52.055Z,14.81
2022-09-14T17:02:18.785Z,14.67
2022-09-14T17:04:45.653Z,14.60
2022-09-14T17:07:12.341Z,14.54
2022-09-14T17:09:41.028Z,14.36
2022-09-14T17:12:07.703Z,14.30
2022-09-14T17:14:34.361Z,14.29
2022-09-14T17:17:01.079Z,14.18
2022-09-14T17:19:28.324Z,14.07
2022-09-14T17:21:55.071Z,13.99
2022-09-14T17:24:22.484Z,13.95
2022-09-14T17:26:49.359Z,13.77
2022-09-14T17:29:16.296Z,13.69
2022-09-14T17:31:44.339Z,13.63
2022-09-14T17:34:12.651Z,13.55
2022-09-14T17:36:39.730Z,13.46
2022-09-14T17:39:11.649Z,13.45
2022-09-14T17:41:39.726Z,13.38
2022-09-14T17:44:07.532Z,13.31
2022-09-14T17:46:44.417Z,13.24
2022-09-14T17:49:13.995Z,13.23
2022-09-14T17:51:40.880Z,13.20
2022-09-14T17:54:09.773Z,13.23
2022-09-14T17:56:36.429Z,13.24
2022-09-14T17:59:08.626Z,13.24
2022-09-14T18:01:37.818Z,13.21
2022-09-14T18:04:09.862Z,13.21
2022-09-14T18:06:38.982Z,13.20
2022-09-14T18:09:15.449Z,13.29
2022-09-14T18:11:42.461Z,13.35
2022-09-14T18:14:12.675Z,13.32
2022-09-14T18:16:46.845Z,13.27
2022-09-14T18:19:13.984Z,13.41
2022-09-14T18:21:41.187Z,13.34
2022-09-14T18:24:08.232Z,13.44
2022-09-14T18:26:35.305Z,13.45
2022-09-14T18:29:03.597Z,13.44
2022-09-14T18:31:30.624Z,13.48
2022-09-14T18:34:01.588Z,13.40
2022-09-14T18:36:31.430Z,13.35
2022-09-14T18:38:58.685Z,13.35
2022-09-14T18:41:25.871Z,13.40
2022-09-14T18:43:53.408Z,13.41
2022-09-14T18:46:23.447Z,13.42
2022-09-14T18:48:55.307Z,13.38
2022-09-14T18:51:22.291Z,13.29
2022-09-14T18:53:49.204Z,13.28
2022-09-14T18:56:22.335Z,13.34
2022-09-14T18:58:48.989Z,13.33
2022-09-14T19:01:18.214Z,13.27
2022-09-14T19:03:48.520Z,13.19
2022-09-14T19:06:18.405Z,13.10
2022-09-14T19:08:45.141Z,13.11
2022-09-14T19:11:23.505Z,13.18
2022-09-14T19:14:10.504Z,13.03
2022-09-14T19:16:39.174Z,12.98
2022-09-14T19:19:07.240Z,12.97
2022-09-14T19:21:34.429Z,12.92
2022-09-14T19:24:03.719Z,12.85
2022-09-14T19:26:39.026Z,12.88
2022-09-14T19:29:10.661Z,12.88
2022-09-14T19:31:37.934Z,12.80
2022-09-14T19:34:05.136Z,12.83
2022-09-14T19:36:34.788Z,12.80
2022-09-14T19:39:04.356Z,12.89
2022-09-14T19:41:32.906Z,12.82
2022-09-14T19:44:00.458Z,12.71
2022-09-14T19:46:27.723Z,12.72
2022-09-14T19:48:57.106Z,12.70
2022-09-14T19:51:26.094Z,12.77
2022-09-14T19:53:54.491Z,12.74
2022-09-14T19:56:26.792Z,12.79
2022-09-14T19:58:55.555Z,12.73
2022-09-14T20:01:23.699Z,12.80
2022-09-14T20:03:50.971Z,12.83
2022-09-14T20:06:34.310Z,12.83
2022-09-14T20:09:09.941Z,12.80
2022-09-14T20:11:38.352Z,12.79
2022-09-14T20:14:06.585Z,12.79
2022-09-14T20:16:38.853Z,12.73
2022-09-14T20:19:17.486Z,12.64
2022-09-14T20:21:48.117Z,12.65
2022-09-14T20:24:28.752Z,12.63
2022-09-14T20:26:57.401Z,12.59
2022-09-14T20:29:24.833Z,12.54
2022-09-14T20:31:52.047Z,12.51
2022-09-14T20:34:20.503Z,12.57
2022-09-14T20:36:48.510Z,12.52
2022-09-14T20:39:15.304Z,12.50
2022-09-14T20:41:42.095Z,12.46
2022-09-14T20:44:09.840Z,12.43
2022-09-14T20:46:39.097Z,12.55
2022-09-14T20:49:08.624Z,12.65
2022-09-14T20:51:36.490Z,12.59
2022-09-14T20:54:04.217Z,12.65
2022-09-14T20:56:32.917Z,12.76
2022-09-14T20:59:01.796Z,12.79
2022-09-14T21:01:31.136Z,12.76
2022-09-14T21:04:12.976Z,12.81
2022-09-14T21:06:42.222Z,12.79
2022-09-14T21:09:09.825Z,12.76
2022-09-14T21:11:37.877Z,12.74
2022-09-14T21:14:04.584Z,12.75
2022-09-14T21:16:37.039Z,12.76
2022-09-14T21:19:13.703Z,12.76
2022-09-14T21:21:40.388Z,12.72
2022-09-14T21:24:09.625Z,12.76
2022-09-14T21:26:41.869Z,12.76
2022-09-14T21:29:12.950Z,12.73
2022-09-14T21:31:39.709Z,12.78
2022-09-14T21:34:10.600Z,12.77
2022-09-14T21:36:45.044Z,12.84
2022-09-14T21:39:24.000Z,12.85
2022-09-14T21:41:55.932Z,12.80
2022-09-14T21:44:32.160Z,12.74
2022-09-14T21:46:59.327Z,12.79
2022-09-14T21:49:25.960Z,12.74
2022-09-14T21:51:52.720Z,12.69
2022-09-14T21:54:19.915Z,12.63
2022-09-14T21:56:47.288Z,12.66
2022-09-14T21:59:17.650Z,12.58
2022-09-14T22:01:45.062Z,12.53
2022-09-14T22:04:20.027Z,12.50
2022-09-14T22:06:47.267Z,12.38
2022-09-14T22:09:15.713Z,12.26
2022-09-14T22:11:42.712Z,12.22
2022-09-14T22:14:20.068Z,12.19
2022-09-14T22:16:48.032Z,12.14
2022-09-14T22:19:19.289Z,12.08
2022-09-14T22:21:46.214Z,12.10
2022-09-14T22:24:19.363Z,12.09
2022-09-14T22:26:46.570Z,12.04
2022-09-14T22:29:16.017Z,12.05
2022-09-14T22:31:43.973Z,12.02
2022-09-14T22:34:11.272Z,11.92
2022-09-14T22:36:37.923Z,11.85
2022-09-14T22:39:05.128Z,11.86
2022-09-14T22:41:31.716Z,11.92
2022-09-14T22:43:58.647Z,11.94
2022-09-14T22:46:25.702Z,11.89
2022-09-14T22:48:52.969Z,11.85
2022-09-14T22:51:25.866Z,11.85
2022-09-14T22:53:52.836Z,11.88
2022-09-14T22:56:25.154Z,11.90
2022-09-14T22:58:54.133Z,11.95
2022-09-14T23:01:24.253Z,12.03
2022-09-14T23:03:55.650Z,12.15
2022-09-14T23:06:26.287Z,12.09
2022-09-14T23:08:52.890Z,12.08
2022-09-14T23:11:19.428Z,12.05
2022-09-14T23:13:46.053Z,12.04
2022-09-14T23:16:18.246Z,12.03
2022-09-14T23:18:45.685Z,11.99
2022-09-14T23:21:13.258Z,11.96
2022-09-14T23:23:40.022Z,11.89
2022-09-14T23:26:13.055Z,11.88
2022-09-14T23:28:44.924Z,11.85
2022-09-14T23:31:11.560Z,11.85
2022-09-14T23:33:38.300Z,11.79
2022-09-14T23:36:04.984Z,11.72
2022-09-14T23:38:34.363Z,11.70
2022-09-14T23:41:01.156Z,11.62
2022-09-14T23:43:27.781Z,11.54
2022-09-14T23:45:54.520Z,11.52
2022-09-14T23:48:21.193Z,11.47
2022-09-14T23:50:56.804Z,11.45
2022-09-14T23:53:23.547Z,11.44
2022-09-14T23:55:50.088Z,11.31
2022-09-14T23:58:18.972Z,11.35
